Information Last Ob Photographs Meteogram Network Table Neighbors Monthly Summaries Observation History Wind Roses Custom Wind Roses Data Calendar Download

18 May 2016 Observation History, [VAAH] AHMADABAD , timezone: Asia/Kolkata

Select Date:
Show MetarsPrevious DayNext Day
Time Wind
(mph)
Vis.
(mi.)
Sky Cond.
(100s ft)
Present Wx Temperature (ºF) Relative
Humidity
Pressure Precipitation (in.)
Air Dwpt Feels Like 6 hour altimeter
(in.)
sea level
(mb)
1 hr 3 hr 6 hr
Max.Min.
11:30 PMSW 82.49 NSC
{FU}9572103 47% 29.52990
VAAH 181800Z 23007KT 4000 FU NSC 35/22 Q1000 NOSIG
11:00 PMSW 82.49 NSC
{FU}9572103 47% 29.52990
VAAH 181730Z 23007KT 4000 FU NSC 35/22 Q1000 NOSIG
10:30 PMSW 92.49 NSC
{FU}9770104 42% 29.52990
VAAH 181700Z 23008KT 4000 FU NSC 36/21 Q1000 NOSIG
9:30 PMSSW 82.49 NSC
{FU}10068106 35% 29.50040
VAAH 181600Z 21007KT 4000 FU NSC 38/20 Q0999 NOSIG
9:00 PMSSW 72.49 NSC
{FU}10470113 34% 29.50040
VAAH 181530Z 21006KT 4000 FU NSC 40/21 Q0999 NOSIG
8:30 PMSSW 92.49 NSC
{FU}10868115 28% 29.47080
VAAH 181500Z 21008KT 4000 FU NSC 42/20 Q0998 NOSIG
8:00 PMN 02.49 NSC
{FU}10959 20% 29.44130
VAAH 181430Z 00000KT 4000 FU NSC 43/15 Q0997 NOSIG
7:30 PMSW 22.49 NSC
{FU}11355113 16% 29.44130
VAAH 181400Z 23002KT 4000 FU NSC 45/13 Q0997 NOSIG
7:00 PMNW 23.11 NSC
{FU}11754115 13% 29.41180
VAAH 181330Z 31002KT 5000 FU NSC 47/12 Q0996 BECMG 4000
6:30 PMN 33.73 NSC
11854116 12% 29.41180
VAAH 181300Z 35003KT 6000 NSC 48/12 Q0996 BECMG 4000 FU
6:00 PMN 33.73 NSC
12055120 13% 29.41180
VAAH 181230Z 35003KT 6000 NSC 49/13 Q0996 NOSIG
5:30 PMN 33.73 NSC
12055120 13% 29.41180
VAAH 181200Z 01003KT 6000 NSC 49/13 Q0996 NOSIG
5:00 PMWNW 33.73 NSC
12257122 13% 29.41180
VAAH 181130Z 29003KT 6000 NSC 50/14 Q0996 NOSIG
4:30 PMNNW 63.73 NSC
12055120 13% 29.41180
VAAH 181100Z 34005KT 6000 NSC 49/13 Q0996 NOSIG
4:00 PMNW 53.73 NSC
12257122 13% 29.41180
VAAH 181030Z 31004KT 6000 NSC 50/14 Q0996 NOSIG
3:30 PMNNW 53.73 NSC
12059121 14% 29.44130
VAAH 181000Z 34004KT 6000 NSC 49/15 Q0997 NOSIG
3:00 PMNNW 53.73 NSC
11859120 15% 29.44130
VAAH 180930Z 34004KT 6000 NSC 48/15 Q0997 NOSIG
2:30 PMWNW 73.73 NSC
11759118 16% 29.47080
VAAH 180900Z 29006KT 6000 NSC 47/15 Q0998 NOSIG
2:00 PMWNW 73.73 NSC
11559117 17% 29.50040
VAAH 180830Z 30006KT 6000 NSC 46/15 Q0999 NOSIG
1:30 PMW 63.73 NSC
11563119 19% 29.50040
VAAH 180800Z 28005KT 6000 NSC 46/17 Q0999 NOSIG
1:00 PMNW 33.73 NSC
11159113 19% 29.52990
VAAH 180730Z 32003KT 6000 NSC 44/15 Q1000 NOSIG
12:30 PMW 53.73 NSC
10964115 24% 29.52990
VAAH 180700Z 27004KT 6000 NSC 43/18 Q1000 NOSIG
12:00 PMWNW 83.11 NSC
{FU}10966116 25% 29.55940
VAAH 180630Z 29007KT 5000 FU NSC 43/19 Q1001 NOSIG
11:30 AMN 53.11 NSC
{FU}10666111 28% 29.55940
VAAH 180600Z 01004KT 5000 FU NSC 41/19 Q1001 NOSIG
11:00 AMNW 53.11 NSC
{FU}10668113 30% 29.5890
VAAH 180530Z 32004KT 5000 FU NSC 41/20 Q1002 NOSIG
10:30 AMWNW 73.11 NSC
{FU}10266107 31% 29.5890
VAAH 180500Z 29006KT 5000 FU NSC 39/19 Q1002 NOSIG
10:00 AMW 83.11 NSC
{FU}10068106 35% 29.5890
VAAH 180430Z 28007KT 5000 FU NSC 38/20 Q1002 NOSIG
9:30 AMWNW 53.11 NSC
{FU}9768102 39% 29.5890
VAAH 180400Z 29004KT 5000 FU NSC 36/20 Q1002 NOSIG
9:00 AMNNW 52.49 NSC
{FU}9570101 44% 29.5890
VAAH 180330Z 33004KT 4000 FU NSC 35/21 Q1002 BECMG 5000
8:30 AMWNW 62.49 NSC
{FU}917097 49% 29.5890
VAAH 180300Z 30005KT 4000 FU NSC 33/21 Q1002 NOSIG
8:00 AMNW 52.49 NSC
{FU}916895 46% 29.5890
VAAH 180230Z 31004KT 4000 FU NSC 33/20 Q1002 NOSIG
7:30 AMNW 52.49 NSC
{FU}906893 49% 29.5890
VAAH 180200Z 31004KT 4000 FU NSC 32/20 Q1002 NOSIG
7:00 AMNW 62.49 NSC
{FU}907095 52% 29.55940
VAAH 180130Z 31005KT 4000 FU NSC 32/21 Q1001 NOSIG
6:30 AMWNW 52.49 NSC
{FU}886891 52% 29.55940
VAAH 180100Z 30004KT 4000 FU NSC 31/20 Q1001 NOSIG
5:00 AMNW 72.49 NSC
{FU}907095 52% 29.52990
VAAH 172330Z 31006KT 4000 FU NSC 32/21 Q1000 NOSIG
4:30 AMWNW 82.49 NSC
{FU}917298 52% 29.52990
VAAH 172300Z 29007KT 4000 FU NSC 33/22 Q1000 NOSIG
4:00 AMWNW 72.49 NSC
{FU}9173101 56% 29.52990
VAAH 172230Z 30006KT 4000 FU NSC 33/23 Q1000 NOSIG
2:30 AMW 92.49 NSC
{FU}9575107 53% 29.52990
VAAH 172100Z 28008KT 4000 FU NSC 35/24 Q1000 NOSIG
1:30 AMW 52.49 NSC
{FU}9773107 47% 29.52990
VAAH 172000Z 28004KT 4000 FU NSC 36/23 Q1000 NOSIG
1:00 AMW 72.49 NSC
{FU}9772105 44% 29.52990
VAAH 171930Z 26006KT 4000 FU NSC 36/22 Q1000 NOSIG
12:30 AMSW 52.49 NSC
{FU}9568100 42% 29.55940
VAAH 171900Z 23004KT 4000 FU NSC 35/20 Q1001 NOSIG
12:00 AMSW 72.49 NSC
{FU}9768102 39% 29.55940
VAAH 171830Z 23006KT 4000 FU NSC 36/20 Q1001 NOSIG

Data Notes